Buxtehude — V2BY8 — position and weather

sailwx.info

Track history (hours):
 
Tides and Currents Weather Stations Pressure Air Temp Water Temp Dewpoint Dewpoint Depression Visibility Wind Speed Wind Dir Waves Ship Positions

Buxtehude

Last reported at 2016-Dec-02 02:25 UTC. Time now 2016-Dec-07 16:23 UTC.
Position N 46°18' E 030°53'.

Length 134 m; draft 8.9 m.

Type: Ship (hazmat cat A). MMSI: 304962000.

Date/timePositionNaut miles runAvg speedWind from/ knotsBaromVisibWave heightAir tempDewpointWater temp
2016-Dec-02 02:25N 46°18' E 030°53'1315.0
2016-Dec-02 01:33N 46°30' E 030°46'1 0.6
2016-Dec-02 00:29N 46°29' E 030°46'0 0.0
2016-Dec-01 23:29N 46°29' E 030°46'0 0.0
2016-Dec-01 22:31N 46°29' E 030°46'0 0.0
2016-Dec-01 21:28N 46°29' E 030°46'0 0.0
2016-Dec-01 20:30N 46°29' E 030°46'0 0.0
2016-Dec-01 19:30N 46°29' E 030°46'0 0.0
2016-Dec-01 17:29N 46°29' E 030°46'0 0.0
2016-Dec-01 16:32N 46°29' E 030°46'0 0.0
2016-Dec-01 15:22N 46°29' E 030°46'0 0.0
2016-Dec-01 14:31N 46°29' E 030°46'0 0.0
2016-Dec-01 13:24N 46°29' E 030°46'1 1.6
2016-Dec-01 12:33N 46°30' E 030°48'1211.9
2016-Dec-01 11:34N 46°19' E 030°54'29714.2
2016-Nov-30 14:33N 44°33' E 037°30'1616.4
2016-Nov-30 13:33N 44°39' E 037°51'4 4.2
2016-Nov-30 12:31N 44°43' E 037°49'0 0.0
2016-Nov-30 11:31N 44°43' E 037°49'0 0.1
2016-Nov-30 10:33N 44°43' E 037°49'0 0.0
2016-Nov-30 09:33N 44°43' E 037°49'0 0.0
2016-Nov-30 08:32N 44°43' E 037°49'0 0.1
2016-Nov-30 07:32N 44°43' E 037°49'0 0.1
2016-Nov-30 06:31N 44°43' E 037°49'0 0.0
2016-Nov-30 05:31N 44°43' E 037°49'0 0.1
2016-Nov-30 04:31N 44°43' E 037°49'0 0.0
2016-Nov-30 03:30N 44°43' E 037°49'0 0.0
2016-Nov-30 02:33N 44°43' E 037°49'0 0.1
2016-Nov-30 01:32N 44°43' E 037°49'0 0.0
2016-Nov-30 00:29N 44°43' E 037°49'0 0.0
2016-Nov-29 23:31N 44°43' E 037°49'0 0.1
2016-Nov-29 22:31N 44°43' E 037°49'0 0.1
2016-Nov-29 21:31N 44°43' E 037°49'0 0.0
2016-Nov-29 20:33N 44°43' E 037°49'0 0.1
2016-Nov-29 19:33N 44°43' E 037°49'0 0.0
2016-Nov-29 18:32N 44°43' E 037°49'0 0.0
2016-Nov-29 17:32N 44°43' E 037°49'0 0.0
2016-Nov-29 16:31N 44°43' E 037°49'0 0.0
2016-Nov-29 15:31N 44°43' E 037°49'0 0.1
2016-Nov-29 14:34N 44°43' E 037°49'0 0.0
2016-Nov-29 12:33N 44°43' E 037°49'0 0.0
2016-Nov-29 11:32N 44°43' E 037°49'0 0.0
2016-Nov-29 10:32N 44°43' E 037°49'0 0.1
2016-Nov-29 09:31N 44°43' E 037°49'0 0.1
2016-Nov-29 08:31N 44°43' E 037°49'0 0.1
2016-Nov-29 07:34N 44°43' E 037°49'0 0.0
2016-Nov-29 06:33N 44°43' E 037°49'0 0.1
2016-Nov-29 05:33N 44°43' E 037°49'0 0.0
2016-Nov-29 04:29N 44°43' E 037°49'0 0.0
2016-Nov-29 03:32N 44°43' E 037°49'1 0.8
2016-Nov-29 02:33N 44°43' E 037°48'8 8.4
2016-Nov-29 01:34N 44°35' E 037°52'3 2.9
2016-Nov-29 00:33N 44°32' E 037°52'1 0.6
2016-Nov-28 23:33N 44°32' E 037°52'0 0.3
2016-Nov-28 22:33N 44°32' E 037°51'1 0.9
2016-Nov-28 21:34N 44°31' E 037°52'0 0.3
2016-Nov-28 20:33N 44°31' E 037°51'1111.2
2016-Nov-28 19:33N 44°22' E 037°43'18 2.0
2016-Nov-28 10:11N 44°03' E 037°40'3 1.0
2016-Nov-28 07:31N 44°01' E 037°42'7 7.0
2016-Nov-28 06:32N 44°08' E 037°40'1515.5
2016-Nov-28 05:32N 44°23' E 037°38'1312.5
2016-Nov-28 04:32N 44°21' E 037°20'42912.6
2016-Nov-26 18:32N 40°48' E 028°55'1 0.7
2016-Nov-26 17:33N 40°48' E 028°56'1 0.6
2016-Nov-26 16:33N 40°49' E 028°56'1 0.7
2016-Nov-26 15:30N 40°49' E 028°57'0 0.5
2016-Nov-26 14:33N 40°49' E 028°57'135 4.6
2016-Nov-25 09:31N 40°01' E 026°12'  
Track history (hours):
 
Tides and Currents Weather Stations Pressure Air Temp Water Temp Dewpoint Dewpoint Depression Visibility Wind Speed Wind Dir Waves Ship Positions

Buxtehude

Last reported at 2016-Dec-02 02:25 UTC. Time now 2016-Dec-07 16:23 UTC.
Position N 46°18' E 030°53'.

Length 134 m; draft 8.9 m.

Type: Ship (hazmat cat A). MMSI: 304962000.

Date/timePositionNaut miles runAvg speedWind from/ knotsBaromVisibWave heightAir tempDewpointWater temp
2016-Dec-02 02:25N 46°18' E 030°53'1315.0
2016-Dec-02 01:33N 46°30' E 030°46'1 0.6
2016-Dec-02 00:29N 46°29' E 030°46'0 0.0
2016-Dec-01 23:29N 46°29' E 030°46'0 0.0
2016-Dec-01 22:31N 46°29' E 030°46'0 0.0
2016-Dec-01 21:28N 46°29' E 030°46'0 0.0
2016-Dec-01 20:30N 46°29' E 030°46'0 0.0
2016-Dec-01 19:30N 46°29' E 030°46'0 0.0
2016-Dec-01 17:29N 46°29' E 030°46'0 0.0
2016-Dec-01 16:32N 46°29' E 030°46'0 0.0
2016-Dec-01 15:22N 46°29' E 030°46'0 0.0
2016-Dec-01 14:31N 46°29' E 030°46'0 0.0
2016-Dec-01 13:24N 46°29' E 030°46'1 1.6
2016-Dec-01 12:33N 46°30' E 030°48'1211.9
2016-Dec-01 11:34N 46°19' E 030°54'29714.2
2016-Nov-30 14:33N 44°33' E 037°30'1616.4
2016-Nov-30 13:33N 44°39' E 037°51'4 4.2
2016-Nov-30 12:31N 44°43' E 037°49'0 0.0
2016-Nov-30 11:31N 44°43' E 037°49'0 0.1
2016-Nov-30 10:33N 44°43' E 037°49'0 0.0
2016-Nov-30 09:33N 44°43' E 037°49'0 0.0
2016-Nov-30 08:32N 44°43' E 037°49'0 0.1
2016-Nov-30 07:32N 44°43' E 037°49'0 0.1
2016-Nov-30 06:31N 44°43' E 037°49'0 0.0
2016-Nov-30 05:31N 44°43' E 037°49'0 0.1
2016-Nov-30 04:31N 44°43' E 037°49'0 0.0
2016-Nov-30 03:30N 44°43' E 037°49'0 0.0
2016-Nov-30 02:33N 44°43' E 037°49'0 0.1
2016-Nov-30 01:32N 44°43' E 037°49'0 0.0
2016-Nov-30 00:29N 44°43' E 037°49'0 0.0
2016-Nov-29 23:31N 44°43' E 037°49'0 0.1
2016-Nov-29 22:31N 44°43' E 037°49'0 0.1
2016-Nov-29 21:31N 44°43' E 037°49'0 0.0
2016-Nov-29 20:33N 44°43' E 037°49'0 0.1
2016-Nov-29 19:33N 44°43' E 037°49'0 0.0
2016-Nov-29 18:32N 44°43' E 037°49'0 0.0
2016-Nov-29 17:32N 44°43' E 037°49'0 0.0
2016-Nov-29 16:31N 44°43' E 037°49'0 0.0
2016-Nov-29 15:31N 44°43' E 037°49'0 0.1
2016-Nov-29 14:34N 44°43' E 037°49'0 0.0
2016-Nov-29 12:33N 44°43' E 037°49'0 0.0
2016-Nov-29 11:32N 44°43' E 037°49'0 0.0
2016-Nov-29 10:32N 44°43' E 037°49'0 0.1
2016-Nov-29 09:31N 44°43' E 037°49'0 0.1
2016-Nov-29 08:31N 44°43' E 037°49'0 0.1
2016-Nov-29 07:34N 44°43' E 037°49'0 0.0
2016-Nov-29 06:33N 44°43' E 037°49'0 0.1
2016-Nov-29 05:33N 44°43' E 037°49'0 0.0
2016-Nov-29 04:29N 44°43' E 037°49'0 0.0
2016-Nov-29 03:32N 44°43' E 037°49'1 0.8
2016-Nov-29 02:33N 44°43' E 037°48'8 8.4
2016-Nov-29 01:34N 44°35' E 037°52'3 2.9
2016-Nov-29 00:33N 44°32' E 037°52'1 0.6
2016-Nov-28 23:33N 44°32' E 037°52'0 0.3
2016-Nov-28 22:33N 44°32' E 037°51'1 0.9
2016-Nov-28 21:34N 44°31' E 037°52'0 0.3
2016-Nov-28 20:33N 44°31' E 037°51'1111.2
2016-Nov-28 19:33N 44°22' E 037°43'18 2.0
2016-Nov-28 10:11N 44°03' E 037°40'3 1.0
2016-Nov-28 07:31N 44°01' E 037°42'7 7.0
2016-Nov-28 06:32N 44°08' E 037°40'1515.5
2016-Nov-28 05:32N 44°23' E 037°38'1312.5
2016-Nov-28 04:32N 44°21' E 037°20'42912.6
2016-Nov-26 18:32N 40°48' E 028°55'1 0.7
2016-Nov-26 17:33N 40°48' E 028°56'1 0.6
2016-Nov-26 16:33N 40°49' E 028°56'1 0.7
2016-Nov-26 15:30N 40°49' E 028°57'0 0.5
2016-Nov-26 14:33N 40°49' E 028°57'135 4.6
2016-Nov-25 09:31N 40°01' E 026°12'  

Dump ship's entire track history